createdAt,value
2023-02-25T00:02:49.979Z,5.10
2023-02-25T00:05:51.726Z,5.20
2023-02-25T00:08:54.473Z,5.20
2023-02-25T00:11:56.451Z,5.20
2023-02-25T00:14:58.825Z,5.10
2023-02-25T00:18:00.633Z,5.10
2023-02-25T00:21:05.794Z,5.10
2023-02-25T00:24:16.371Z,5.10
2023-02-25T00:27:18.587Z,5.00
2023-02-25T00:30:20.257Z,5.00
2023-02-25T00:33:21.937Z,5.00
2023-02-25T00:36:25.731Z,4.90
2023-02-25T00:39:41.916Z,4.80
2023-02-25T00:42:43.705Z,4.70
2023-02-25T00:45:45.329Z,4.70
2023-02-25T00:48:47.280Z,4.70
2023-02-25T00:51:49.074Z,4.60
2023-02-25T00:54:52.052Z,4.60
2023-02-25T00:57:53.682Z,4.50
2023-02-25T01:00:55.530Z,4.50
2023-02-25T01:03:58.276Z,4.60
2023-02-25T01:07:01.329Z,4.60
2023-02-25T01:10:05.467Z,4.50
2023-02-25T01:13:07.121Z,4.50
2023-02-25T01:16:16.864Z,4.60
2023-02-25T01:19:22.202Z,4.50
2023-02-25T01:22:24.439Z,4.60
2023-02-25T01:25:26.959Z,4.60
2023-02-25T01:28:28.812Z,4.50
2023-02-25T01:31:31.249Z,4.40
2023-02-25T01:34:33.362Z,4.30
2023-02-25T01:37:34.977Z,4.30
2023-02-25T01:40:37.772Z,4.20
2023-02-25T01:43:41.252Z,4.20
2023-02-25T01:46:45.394Z,4.00
2023-02-25T01:49:47.422Z,4.00
2023-02-25T01:52:49.316Z,4.00
2023-02-25T01:55:51.125Z,4.00
2023-02-25T01:58:53.811Z,3.90
2023-02-25T02:01:55.816Z,3.80
2023-02-25T02:04:57.449Z,3.70
2023-02-25T02:07:59.804Z,3.70
2023-02-25T02:11:02.819Z,3.60
2023-02-25T02:14:06.102Z,3.70
2023-02-25T02:17:13.698Z,3.60
2023-02-25T02:20:25.304Z,3.60
2023-02-25T02:24:18.250Z,3.60
2023-02-25T02:27:50.832Z,3.70
2023-02-25T02:31:11.285Z,3.80
2023-02-25T02:34:40.112Z,3.90
2023-02-25T02:38:12.210Z,3.90
2023-02-25T02:41:28.610Z,3.90
2023-02-25T02:44:32.139Z,3.90
2023-02-25T02:47:40.519Z,4.00
2023-02-25T02:50:54.865Z,3.90
2023-02-25T02:53:59.651Z,4.00
2023-02-25T02:57:03.320Z,4.00
2023-02-25T03:00:17.890Z,4.00
2023-02-25T03:03:30.029Z,4.00
2023-02-25T03:06:35.046Z,4.10
2023-02-25T03:09:42.236Z,4.10
2023-02-25T03:12:43.842Z,4.10
2023-02-25T03:15:47.355Z,4.10
2023-02-25T03:18:59.276Z,4.10
2023-02-25T03:22:07.482Z,4.10
2023-02-25T03:25:12.843Z,4.10
2023-02-25T03:28:34.928Z,4.00
2023-02-25T03:31:42.637Z,4.10
2023-02-25T03:34:48.599Z,4.00
2023-02-25T03:37:54.213Z,4.00
2023-02-25T03:40:58.433Z,4.00
2023-02-25T03:44:00.337Z,4.00
2023-02-25T03:47:04.580Z,4.00
2023-02-25T03:50:21.379Z,4.00
2023-02-25T03:53:22.985Z,3.90
2023-02-25T03:56:24.866Z,3.90
2023-02-25T03:59:28.295Z,3.90
2023-02-25T04:02:33.205Z,3.80
2023-02-25T04:05:36.096Z,3.90
2023-02-25T04:08:37.773Z,3.90
2023-02-25T04:11:39.461Z,3.90
2023-02-25T04:14:41.494Z,3.80
2023-02-25T04:17:45.549Z,3.80
2023-02-25T04:20:47.291Z,3.90
2023-02-25T04:23:49.069Z,3.90
2023-02-25T04:26:57.865Z,3.90
2023-02-25T04:29:59.696Z,3.90
2023-02-25T04:33:01.907Z,3.90
2023-02-25T04:36:03.859Z,3.90
2023-02-25T04:39:06.332Z,4.00
2023-02-25T04:42:08.023Z,4.00
2023-02-25T04:45:10.997Z,4.00
2023-02-25T04:48:12.670Z,4.00
2023-02-25T04:51:15.692Z,4.00
2023-02-25T04:54:18.968Z,3.90
2023-02-25T04:57:20.881Z,4.00
2023-02-25T05:00:29.695Z,4.00
2023-02-25T05:03:32.310Z,4.00
2023-02-25T05:06:34.646Z,4.00
2023-02-25T05:09:36.251Z,4.00
2023-02-25T05:12:38.025Z,4.10
2023-02-25T05:15:40.030Z,4.10
2023-02-25T05:18:43.480Z,4.10
2023-02-25T05:21:45.142Z,4.10
2023-02-25T05:24:46.697Z,4.10
2023-02-25T05:27:50.734Z,4.20
2023-02-25T05:30:53.548Z,4.20
2023-02-25T05:33:55.216Z,4.20
2023-02-25T05:36:56.967Z,4.30
2023-02-25T05:39:58.564Z,4.20
2023-02-25T05:43:00.562Z,4.20
2023-02-25T05:46:03.119Z,4.20
2023-02-25T05:49:04.732Z,4.20
2023-02-25T05:52:06.314Z,4.20
2023-02-25T05:55:09.512Z,4.20
2023-02-25T05:58:11.771Z,4.30
2023-02-25T06:01:19.567Z,4.20
2023-02-25T06:04:22.110Z,4.20
2023-02-25T06:07:23.778Z,4.10
2023-02-25T06:10:26.266Z,4.10
2023-02-25T06:13:27.989Z,4.10
2023-02-25T06:16:33.028Z,4.00
2023-02-25T06:19:35.016Z,3.90
2023-02-25T06:22:36.848Z,3.90
2023-02-25T06:25:38.498Z,3.90
2023-02-25T06:28:40.523Z,3.90
2023-02-25T06:31:43.215Z,3.90
2023-02-25T06:34:45.292Z,4.00
2023-02-25T06:37:46.920Z,4.00
2023-02-25T06:40:50.698Z,4.10
2023-02-25T06:43:52.961Z,4.10
2023-02-25T06:46:55.552Z,4.20
2023-02-25T06:49:57.227Z,4.20
2023-02-25T06:53:00.230Z,4.20
2023-02-25T06:56:01.920Z,4.20
2023-02-25T06:59:03.626Z,4.20
2023-02-25T07:02:05.335Z,4.20
2023-02-25T07:05:07.164Z,4.20
2023-02-25T07:08:08.912Z,4.10
2023-02-25T07:11:18.366Z,4.20
2023-02-25T07:14:19.998Z,4.10
2023-02-25T07:17:21.575Z,4.20
2023-02-25T07:20:23.524Z,4.10
2023-02-25T07:23:25.343Z,4.20
2023-02-25T07:26:28.474Z,4.10
2023-02-25T07:29:30.128Z,4.10
2023-02-25T07:32:31.908Z,4.10
2023-02-25T07:35:34.153Z,4.10
2023-02-25T07:38:37.248Z,4.10
2023-02-25T07:41:39.866Z,4.10
2023-02-25T07:44:41.519Z,4.10
2023-02-25T07:47:43.124Z,4.10
2023-02-25T07:50:44.752Z,4.00
2023-02-25T07:53:47.293Z,3.90
2023-02-25T07:56:51.358Z,3.90
2023-02-25T07:59:52.986Z,4.10
2023-02-25T08:02:55.042Z,4.10
2023-02-25T08:05:57.439Z,4.10
2023-02-25T08:08:59.085Z,4.00
2023-02-25T08:12:00.833Z,4.00
2023-02-25T08:15:02.481Z,4.10
2023-02-25T08:18:04.155Z,4.10
2023-02-25T08:21:05.882Z,4.20
2023-02-25T08:24:08.429Z,4.20
2023-02-25T08:27:10.623Z,4.20
2023-02-25T08:30:12.772Z,4.30
2023-02-25T08:33:14.744Z,4.30
2023-02-25T08:36:21.244Z,4.40
2023-02-25T08:39:22.969Z,4.40
2023-02-25T08:42:24.660Z,4.50
2023-02-25T08:45:26.230Z,4.50
2023-02-25T08:48:27.973Z,4.50
2023-02-25T08:51:38.407Z,4.50
2023-02-25T08:54:41.200Z,4.60
2023-02-25T08:57:43.581Z,4.60
2023-02-25T09:00:45.313Z,4.80
2023-02-25T09:03:54.019Z,4.90
2023-02-25T09:06:58.426Z,5.10
2023-02-25T09:10:00.094Z,5.30
2023-02-25T09:13:01.940Z,5.40
2023-02-25T09:16:03.849Z,5.50
2023-02-25T09:19:05.650Z,5.50
2023-02-25T09:22:08.059Z,5.60
2023-02-25T09:25:09.778Z,5.70
2023-02-25T09:28:12.467Z,5.70
2023-02-25T09:31:15.926Z,5.70
2023-02-25T09:34:18.208Z,5.60
2023-02-25T09:37:19.891Z,5.70
2023-02-25T09:40:24.345Z,5.80
2023-02-25T09:43:29.602Z,5.80
2023-02-25T09:46:34.184Z,5.90
2023-02-25T09:49:44.421Z,6.00
2023-02-25T09:53:02.804Z,6.10
2023-02-25T09:56:07.334Z,6.20
2023-02-25T09:59:21.537Z,6.20
2023-02-25T10:03:09.898Z,6.30
2023-02-25T10:06:11.819Z,6.40
2023-02-25T10:09:42.738Z,6.40
2023-02-25T10:12:56.822Z,6.20
2023-02-25T10:16:25.233Z,6.30
2023-02-25T10:19:34.413Z,6.50
2023-02-25T10:22:55.437Z,6.50
2023-02-25T10:26:00.744Z,6.60
2023-02-25T10:29:07.203Z,6.50
2023-02-25T10:32:24.591Z,6.40
2023-02-25T10:35:31.293Z,6.50
2023-02-25T10:38:34.296Z,6.60
2023-02-25T10:41:36.132Z,6.60
2023-02-25T10:44:38.153Z,6.70
2023-02-25T10:47:42.469Z,6.70
2023-02-25T10:51:00.709Z,6.90
2023-02-25T10:54:07.340Z,7.20
2023-02-25T10:57:15.422Z,7.50
2023-02-25T11:00:32.437Z,7.80
2023-02-25T11:03:45.257Z,7.70
2023-02-25T11:06:48.548Z,7.60
2023-02-25T11:10:06.716Z,7.70
2023-02-25T11:13:30.421Z,7.70
2023-02-25T11:16:35.616Z,7.70
2023-02-25T11:19:39.549Z,7.60
2023-02-25T11:22:44.508Z,7.70
2023-02-25T11:25:46.243Z,7.60
2023-02-25T11:28:49.831Z,7.50
2023-02-25T11:32:01.074Z,7.60
2023-02-25T11:35:08.834Z,7.70
2023-02-25T11:38:24.806Z,7.80
2023-02-25T11:41:32.142Z,7.90
2023-02-25T11:44:45.275Z,7.90
2023-02-25T11:47:49.427Z,8.10
2023-02-25T11:50:57.481Z,8.10
2023-02-25T11:54:21.318Z,7.80
2023-02-25T11:57:37.963Z,7.60
2023-02-25T12:01:04.684Z,7.70
2023-02-25T12:04:18.424Z,7.80
2023-02-25T12:08:12.515Z,7.70
2023-02-25T12:11:25.321Z,7.70
2023-02-25T12:15:03.966Z,7.60
2023-02-25T12:18:42.033Z,7.50
2023-02-25T12:22:14.610Z,7.70
2023-02-25T12:25:43.261Z,7.80
2023-02-25T12:29:25.975Z,7.70
2023-02-25T12:32:37.086Z,7.50
2023-02-25T12:36:03.894Z,7.40
2023-02-25T12:39:32.962Z,7.10
2023-02-25T12:42:57.827Z,7.10
2023-02-25T12:46:05.825Z,6.60
2023-02-25T12:49:34.288Z,6.00
2023-02-25T12:53:14.051Z,5.70
2023-02-25T12:56:24.927Z,5.30
2023-02-25T12:59:57.739Z,5.10
2023-02-25T13:03:15.573Z,5.10
2023-02-25T13:06:35.230Z,5.20
2023-02-25T13:09:59.292Z,5.40
2023-02-25T13:13:20.435Z,5.50
2023-02-25T13:16:49.113Z,5.40
2023-02-25T13:20:12.498Z,5.50
2023-02-25T13:23:51.910Z,5.50
2023-02-25T13:27:11.647Z,5.60
2023-02-25T13:30:34.170Z,5.70
2023-02-25T13:34:08.050Z,5.90
2023-02-25T13:37:24.219Z,5.90
2023-02-25T13:40:55.102Z,5.80
2023-02-25T13:44:18.731Z,5.80
2023-02-25T13:47:39.473Z,6.20
2023-02-25T13:50:50.287Z,6.50
2023-02-25T13:54:10.454Z,6.80
2023-02-25T13:57:21.629Z,7.10
2023-02-25T14:00:47.670Z,7.20
2023-02-25T14:04:08.886Z,7.10
2023-02-25T14:07:48.494Z,6.90
2023-02-25T14:11:11.826Z,6.70
2023-02-25T14:14:37.919Z,6.90
2023-02-25T14:18:12.322Z,6.90
2023-02-25T14:21:26.008Z,7.00
2023-02-25T14:24:37.369Z,7.30
2023-02-25T14:28:03.033Z,7.60
2023-02-25T14:31:38.113Z,7.90
2023-02-25T14:34:56.648Z,8.20
2023-02-25T14:38:09.188Z,8.40
2023-02-25T14:41:35.649Z,8.30
2023-02-25T14:44:52.116Z,8.00
2023-02-25T14:48:07.082Z,7.70
2023-02-25T14:51:53.234Z,7.50
2023-02-25T14:55:20.478Z,7.60
2023-02-25T14:58:50.726Z,7.80
2023-02-25T15:02:30.152Z,7.40
2023-02-25T15:05:42.451Z,5.40
2023-02-25T15:09:20.789Z,4.20
2023-02-25T15:12:37.899Z,3.60
2023-02-25T15:15:46.980Z,3.40
2023-02-25T15:19:00.551Z,3.30
2023-02-25T15:22:19.523Z,3.20
2023-02-25T15:25:21.269Z,3.10
2023-02-25T15:28:28.923Z,3.00
2023-02-25T15:31:33.996Z,3.00
2023-02-25T15:34:37.394Z,3.10
2023-02-25T15:37:51.109Z,3.10
2023-02-25T15:40:55.310Z,3.00
2023-02-25T15:43:59.955Z,3.00
2023-02-25T15:47:21.528Z,3.00
2023-02-25T15:50:51.638Z,3.00
2023-02-25T15:53:53.655Z,3.10
2023-02-25T15:57:01.361Z,3.30
2023-02-25T16:00:04.776Z,3.50
2023-02-25T16:03:25.760Z,3.80
2023-02-25T16:06:40.557Z,4.10
2023-02-25T16:09:49.560Z,4.20
2023-02-25T16:12:55.693Z,4.40
2023-02-25T16:16:01.097Z,4.40
2023-02-25T16:19:06.797Z,4.50
2023-02-25T16:22:37.895Z,4.50
2023-02-25T16:26:03.918Z,4.50
2023-02-25T16:29:48.438Z,4.40
2023-02-25T16:33:18.675Z,4.40
2023-02-25T16:36:36.603Z,4.40
2023-02-25T16:39:39.064Z,4.30
2023-02-25T16:42:40.949Z,4.30
2023-02-25T16:45:53.137Z,4.30
2023-02-25T16:49:01.614Z,4.20
2023-02-25T16:52:04.192Z,4.20
2023-02-25T16:55:12.825Z,4.10
2023-02-25T16:58:14.772Z,4.10
2023-02-25T17:01:23.199Z,4.10
2023-02-25T17:04:32.922Z,4.10
2023-02-25T17:07:36.136Z,4.10
2023-02-25T17:10:46.248Z,4.10
2023-02-25T17:13:49.538Z,4.10
2023-02-25T17:16:51.526Z,4.00
2023-02-25T17:19:53.757Z,3.90
2023-02-25T17:22:58.311Z,3.80
2023-02-25T17:25:59.966Z,3.70
2023-02-25T17:29:10.704Z,3.60
2023-02-25T17:32:30.476Z,3.50
2023-02-25T17:35:33.388Z,3.50
2023-02-25T17:38:37.497Z,3.50
2023-02-25T17:41:41.714Z,3.50
2023-02-25T17:44:44.980Z,3.40
2023-02-25T17:47:46.595Z,3.50
2023-02-25T17:51:00.952Z,3.40
2023-02-25T17:54:16.565Z,3.40
2023-02-25T17:57:20.717Z,3.40
2023-02-25T18:00:32.267Z,3.40
2023-02-25T18:03:45.903Z,3.40
2023-02-25T18:06:48.103Z,3.30
2023-02-25T18:09:58.208Z,3.40
2023-02-25T18:13:01.781Z,3.30
2023-02-25T18:16:29.887Z,3.20
2023-02-25T18:19:38.084Z,3.20
2023-02-25T18:22:47.582Z,3.10
2023-02-25T18:26:10.047Z,3.10
2023-02-25T18:29:11.682Z,3.00
2023-02-25T18:32:13.452Z,3.00
2023-02-25T18:35:15.456Z,3.00
2023-02-25T18:38:25.549Z,2.90
2023-02-25T18:41:27.117Z,2.80
2023-02-25T18:44:28.688Z,2.70
2023-02-25T18:47:30.240Z,2.60
2023-02-25T18:50:32.953Z,2.60
2023-02-25T18:53:34.616Z,2.50
2023-02-25T18:56:36.328Z,2.50
2023-02-25T18:59:37.978Z,2.50
2023-02-25T19:02:50.968Z,2.40
2023-02-25T19:05:52.838Z,2.30
2023-02-25T19:08:54.483Z,2.20
2023-02-25T19:11:56.076Z,2.20
2023-02-25T19:15:07.520Z,2.10
2023-02-25T19:18:13.535Z,2.10
2023-02-25T19:21:17.911Z,2.00
2023-02-25T19:24:20.487Z,1.90
2023-02-25T19:27:24.733Z,1.90
2023-02-25T19:30:31.136Z,1.80
2023-02-25T19:33:32.968Z,1.80
2023-02-25T19:36:34.579Z,1.70
2023-02-25T19:39:36.240Z,1.70
2023-02-25T19:42:39.304Z,1.60
2023-02-25T19:45:41.295Z,1.60
2023-02-25T19:51:54.098Z,1.60
2023-02-25T19:54:56.109Z,1.50
2023-02-25T19:57:57.724Z,1.50
2023-02-25T20:01:05.296Z,1.40
2023-02-25T20:04:08.777Z,1.50
2023-02-25T20:07:10.828Z,1.40
2023-02-25T20:10:13.901Z,1.40
2023-02-25T20:13:15.519Z,1.40
2023-02-25T20:16:17.155Z,1.50
2023-02-25T20:19:18.729Z,1.50
2023-02-25T20:22:23.631Z,1.50
2023-02-25T20:25:25.441Z,1.50
2023-02-25T20:28:26.993Z,1.50
2023-02-25T20:31:29.240Z,1.40
2023-02-25T20:34:31.915Z,1.40
2023-02-25T20:37:39.038Z,1.30
2023-02-25T20:40:40.808Z,1.30
2023-02-25T20:43:42.482Z,1.20
2023-02-25T20:46:44.767Z,1.10
2023-02-25T20:49:47.029Z,1.00
2023-02-25T20:52:48.695Z,1.00
2023-02-25T20:55:51.484Z,0.90
2023-02-25T20:58:54.698Z,0.90
2023-02-25T21:01:57.683Z,0.80
2023-02-25T21:04:59.236Z,0.80
2023-02-25T21:08:00.847Z,0.80
2023-02-25T21:11:02.472Z,0.70
2023-02-25T21:14:08.801Z,0.70
2023-02-25T21:17:13.597Z,0.60
2023-02-25T21:20:15.512Z,0.60
2023-02-25T21:23:17.153Z,0.50
2023-02-25T21:26:19.176Z,0.50
2023-02-25T21:29:21.061Z,0.50
2023-02-25T21:32:22.753Z,0.50
2023-02-25T21:35:25.286Z,0.40
2023-02-25T21:38:28.047Z,0.40
2023-02-25T21:41:29.837Z,0.40
2023-02-25T21:44:31.416Z,0.30
2023-02-25T21:47:32.993Z,0.30
2023-02-25T21:50:34.556Z,0.30
2023-02-25T21:53:36.107Z,0.20
2023-02-25T21:56:38.035Z,0.20
2023-02-25T21:59:39.606Z,0.20
2023-02-25T22:02:41.358Z,0.20
2023-02-25T22:05:46.749Z,0.10
2023-02-25T22:08:48.575Z,0.10
2023-02-25T22:11:50.200Z,0.10
2023-02-25T22:14:51.787Z,0.00
2023-02-25T22:17:54.149Z,0.10
2023-02-25T22:21:17.188Z,0.10
2023-02-25T22:24:18.762Z,0.10
2023-02-25T22:27:20.933Z,0.20
2023-02-25T22:30:22.505Z,0.20
2023-02-25T22:33:24.096Z,0.20
2023-02-25T22:36:26.252Z,0.10
2023-02-25T22:39:28.176Z,0.20
2023-02-25T22:42:29.727Z,0.10
2023-02-25T22:45:31.271Z,0.10
2023-02-25T22:48:34.689Z,0.00
2023-02-25T22:51:42.606Z,0.00
2023-02-25T22:54:44.163Z,0.00
2023-02-25T22:57:45.714Z,0.00
2023-02-25T23:00:47.349Z,0.00
2023-02-25T23:03:50.495Z,0.00
2023-02-25T23:06:53.977Z,0.00
2023-02-25T23:09:55.529Z,-0.10
2023-02-25T23:13:01.691Z,-0.10
2023-02-25T23:16:04.491Z,-0.10
2023-02-25T23:19:07.638Z,-0.10
2023-02-25T23:22:09.613Z,-0.20
2023-02-25T23:25:11.241Z,-0.20
2023-02-25T23:28:13.016Z,-0.20
2023-02-25T23:31:19.754Z,-0.20
2023-02-25T23:34:23.603Z,-0.20
2023-02-25T23:37:25.314Z,-0.20
2023-02-25T23:40:26.959Z,-0.30
2023-02-25T23:43:28.581Z,-0.20
2023-02-25T23:46:31.273Z,-0.30
2023-02-25T23:49:33.074Z,-0.30
2023-02-25T23:52:34.664Z,-0.30
2023-02-25T23:55:36.411Z,-0.30
2023-02-25T23:58:38.622Z,-0.30
